createdAt,value
2022-10-20T00:00:18.936Z,57.47
2022-10-20T00:02:45.397Z,57.24
2022-10-20T00:05:11.916Z,57.98
2022-10-20T00:07:38.429Z,58.85
2022-10-20T00:10:05.394Z,58.25
2022-10-20T00:12:31.983Z,58.29
2022-10-20T00:14:58.480Z,58.11
2022-10-20T00:17:25.025Z,57.20
2022-10-20T00:19:51.534Z,57.40
2022-10-20T00:22:18.050Z,57.75
2022-10-20T00:24:44.521Z,57.49
2022-10-20T00:27:11.162Z,58.00
2022-10-20T00:29:37.765Z,57.86
2022-10-20T00:32:04.380Z,58.20
2022-10-20T00:34:30.902Z,58.04
2022-10-20T00:36:57.363Z,58.19
2022-10-20T00:39:23.792Z,59.36
2022-10-20T00:41:50.294Z,59.52
2022-10-20T00:44:47.951Z,59.00
2022-10-20T00:47:26.626Z,58.94
2022-10-20T00:49:53.112Z,60.53
2022-10-20T00:52:21.028Z,59.56
2022-10-20T00:54:48.832Z,61.23
2022-10-20T00:57:15.501Z,60.04
2022-10-20T00:59:42.005Z,60.83
2022-10-20T01:02:09.081Z,60.67
2022-10-20T01:04:36.665Z,61.70
2022-10-20T01:07:03.739Z,60.84
2022-10-20T01:09:33.142Z,59.75
2022-10-20T01:12:24.326Z,59.45
2022-10-20T01:15:09.796Z,62.14
2022-10-20T01:17:47.047Z,61.22
2022-10-20T01:20:25.906Z,61.46
2022-10-20T01:23:17.300Z,60.80
2022-10-20T01:26:21.305Z,60.60
2022-10-20T01:28:56.871Z,61.51
2022-10-20T01:31:45.374Z,63.13
2022-10-20T01:34:23.012Z,60.83
2022-10-20T01:36:56.773Z,59.91
2022-10-20T01:39:31.601Z,60.05
2022-10-20T01:42:04.185Z,60.16
2022-10-20T01:44:31.762Z,58.95
2022-10-20T01:46:58.733Z,58.51
2022-10-20T01:49:25.574Z,58.97
2022-10-20T01:51:52.914Z,58.62
2022-10-20T01:54:21.591Z,58.81
2022-10-20T01:57:29.674Z,58.30
2022-10-20T02:00:06.681Z,58.75
2022-10-20T02:02:56.437Z,59.67
2022-10-20T02:05:50.975Z,60.85
2022-10-20T02:08:37.845Z,61.96
2022-10-20T02:11:06.391Z,60.25
2022-10-20T02:13:36.124Z,61.25
2022-10-20T02:16:11.795Z,61.44
2022-10-20T02:18:42.607Z,62.15
2022-10-20T02:21:09.267Z,60.73
2022-10-20T02:23:38.511Z,60.89
2022-10-20T02:26:07.175Z,61.29
2022-10-20T02:28:36.136Z,61.93
2022-10-20T02:31:03.692Z,62.81
2022-10-20T02:33:30.909Z,62.77
2022-10-20T02:35:59.294Z,63.49
2022-10-20T02:38:26.162Z,62.88
2022-10-20T02:40:52.741Z,63.19
2022-10-20T02:43:19.228Z,63.90
2022-10-20T02:45:45.721Z,63.91
2022-10-20T02:48:12.158Z,62.30
2022-10-20T02:50:38.716Z,64.03
2022-10-20T02:53:05.424Z,63.65
2022-10-20T02:55:32.039Z,63.52
2022-10-20T02:57:58.535Z,62.48
2022-10-20T03:00:29.371Z,62.60
2022-10-20T03:02:56.190Z,61.48
2022-10-20T03:05:22.788Z,61.32
2022-10-20T03:07:49.295Z,60.75
2022-10-20T03:10:15.854Z,60.58
2022-10-20T03:12:42.282Z,61.41
2022-10-20T03:15:09.026Z,61.08
2022-10-20T03:17:35.958Z,62.06
2022-10-20T03:20:02.982Z,61.55
2022-10-20T03:25:01.083Z,62.21
2022-10-20T03:27:27.620Z,62.27
2022-10-20T03:29:54.081Z,63.05
2022-10-20T03:32:20.496Z,63.10
2022-10-20T03:34:46.945Z,63.07
2022-10-20T03:37:13.454Z,62.38
2022-10-20T03:39:39.961Z,63.61
2022-10-20T03:42:07.347Z,63.89
2022-10-20T03:44:33.839Z,63.09
2022-10-20T03:47:00.313Z,64.48
2022-10-20T03:49:27.039Z,63.17
2022-10-20T03:51:53.482Z,64.09
2022-10-20T03:54:19.909Z,63.23
2022-10-20T03:56:46.353Z,62.23
2022-10-20T03:59:12.786Z,61.88
2022-10-20T04:01:43.824Z,61.78
2022-10-20T04:04:10.532Z,62.91
2022-10-20T04:06:37.147Z,63.82
2022-10-20T04:09:04.943Z,63.17
2022-10-20T04:11:32.473Z,64.50
2022-10-20T04:13:59.342Z,63.75
2022-10-20T04:16:25.835Z,64.93
2022-10-20T04:18:52.776Z,64.37
2022-10-20T04:21:19.259Z,64.25
2022-10-20T04:23:45.925Z,64.95
2022-10-20T04:26:14.867Z,64.57
2022-10-20T04:28:41.832Z,62.97
2022-10-20T04:31:08.637Z,63.70
2022-10-20T04:33:35.462Z,63.63
2022-10-20T04:36:04.678Z,63.90
2022-10-20T04:38:31.804Z,65.20
2022-10-20T04:41:01.919Z,63.94
2022-10-20T04:43:32.110Z,63.86
2022-10-20T04:46:08.395Z,62.67
2022-10-20T04:48:36.481Z,63.18
2022-10-20T04:51:09.184Z,62.46
2022-10-20T04:53:36.053Z,62.49
2022-10-20T04:56:04.663Z,62.33
2022-10-20T04:58:31.149Z,61.92
2022-10-20T05:01:24.791Z,61.78
2022-10-20T05:03:51.470Z,61.01
2022-10-20T05:06:20.315Z,61.21
2022-10-20T05:08:48.782Z,60.51
2022-10-20T05:11:16.371Z,61.62
2022-10-20T05:13:43.433Z,60.53
2022-10-20T05:16:11.261Z,59.79
2022-10-20T05:18:38.875Z,59.92
2022-10-20T05:21:09.725Z,59.56
2022-10-20T05:23:37.993Z,60.15
2022-10-20T05:26:06.567Z,60.62
2022-10-20T05:28:33.396Z,60.99
2022-10-20T05:31:07.898Z,60.54
2022-10-20T05:33:35.373Z,60.94
2022-10-20T05:36:08.217Z,61.25
2022-10-20T05:38:36.695Z,60.07
2022-10-20T05:41:11.373Z,59.62
2022-10-20T05:43:38.441Z,61.21
2022-10-20T05:46:05.670Z,61.38
2022-10-20T05:48:32.572Z,63.75
2022-10-20T05:51:13.616Z,60.97
2022-10-20T05:53:42.504Z,62.34
2022-10-20T05:56:11.550Z,62.08
2022-10-20T05:58:38.668Z,60.96
2022-10-20T06:01:10.854Z,60.25
2022-10-20T06:03:37.486Z,61.59
2022-10-20T06:06:04.481Z,62.54
2022-10-20T06:08:32.360Z,63.42
2022-10-20T06:11:04.538Z,61.91
2022-10-20T06:13:32.527Z,62.64
2022-10-20T06:16:10.243Z,61.36
2022-10-20T06:18:39.243Z,59.64
2022-10-20T06:21:08.338Z,59.71
2022-10-20T06:23:34.845Z,58.90
2022-10-20T06:26:06.962Z,58.29
2022-10-20T06:28:34.777Z,58.51
2022-10-20T06:31:01.511Z,58.15
2022-10-20T06:33:31.576Z,57.67
2022-10-20T06:36:01.422Z,58.18
2022-10-20T06:38:28.458Z,57.04
2022-10-20T06:40:55.183Z,57.84
2022-10-20T06:43:22.041Z,56.48
2022-10-20T06:46:00.723Z,55.94
2022-10-20T06:48:27.917Z,55.71
2022-10-20T06:51:02.203Z,55.59
2022-10-20T06:53:29.313Z,55.27
2022-10-20T06:56:07.082Z,55.43
2022-10-20T06:58:35.706Z,55.57
2022-10-20T07:01:09.951Z,56.33
2022-10-20T07:03:38.341Z,57.56
2022-10-20T07:06:06.238Z,58.16
2022-10-20T07:08:34.192Z,56.70
2022-10-20T07:11:06.594Z,57.04
2022-10-20T07:13:34.826Z,56.19
2022-10-20T07:16:02.504Z,55.06
2022-10-20T07:18:29.704Z,55.16
2022-10-20T07:20:58.556Z,55.13
2022-10-20T07:23:26.441Z,54.32
2022-10-20T07:25:53.203Z,52.87
2022-10-20T07:28:21.751Z,52.59
2022-10-20T07:30:48.673Z,52.09
2022-10-20T07:33:15.254Z,51.72
2022-10-20T07:35:42.009Z,51.04
2022-10-20T07:38:08.539Z,50.84
2022-10-20T07:40:35.014Z,50.36
2022-10-20T07:43:01.446Z,50.14
2022-10-20T07:45:27.898Z,50.22
2022-10-20T07:47:54.407Z,50.03
2022-10-20T07:50:21.046Z,49.76
2022-10-20T07:52:53.787Z,49.31
2022-10-20T07:55:37.538Z,49.35
2022-10-20T07:58:04.828Z,49.33
2022-10-20T08:00:31.345Z,49.02
2022-10-20T08:02:58.568Z,48.83
2022-10-20T08:05:25.415Z,48.66
2022-10-20T08:07:52.225Z,48.25
2022-10-20T08:10:18.825Z,48.56
2022-10-20T08:12:45.349Z,48.44
2022-10-20T08:15:11.816Z,47.75
2022-10-20T08:17:39.501Z,47.44
2022-10-20T08:20:16.771Z,46.73
2022-10-20T08:22:43.221Z,46.53
2022-10-20T08:25:14.412Z,46.34
2022-10-20T08:27:41.204Z,45.55
2022-10-20T08:30:22.803Z,44.93
2022-10-20T08:32:53.770Z,44.65
2022-10-20T08:35:21.462Z,43.12
2022-10-20T08:37:48.108Z,42.36
2022-10-20T08:40:18.087Z,41.71
2022-10-20T08:42:45.284Z,40.76
2022-10-20T08:45:15.614Z,40.23
2022-10-20T08:47:43.449Z,40.28
2022-10-20T08:50:16.668Z,39.63
2022-10-20T08:52:44.542Z,39.13
2022-10-20T08:55:40.479Z,39.00
2022-10-20T08:58:12.533Z,38.91
2022-10-20T09:00:39.875Z,39.03
2022-10-20T09:03:14.685Z,39.57
2022-10-20T09:05:43.526Z,39.83
2022-10-20T09:08:10.166Z,39.21
2022-10-20T09:10:47.985Z,38.60
2022-10-20T09:13:24.911Z,38.34
2022-10-20T09:16:05.079Z,37.24
2022-10-20T09:18:32.814Z,37.51
2022-10-20T09:21:03.415Z,36.63
2022-10-20T09:23:41.208Z,37.08
2022-10-20T09:26:54.243Z,38.75
2022-10-20T09:29:23.091Z,42.14
2022-10-20T09:31:54.863Z,42.86
2022-10-20T09:34:29.815Z,41.02
2022-10-20T09:37:02.324Z,41.80
2022-10-20T09:39:39.436Z,40.64
2022-10-20T09:42:12.487Z,42.05
2022-10-20T09:44:47.381Z,41.84
2022-10-20T09:47:15.169Z,43.61
2022-10-20T09:49:43.172Z,43.88
2022-10-20T09:52:23.780Z,43.37
2022-10-20T09:54:51.004Z,43.75
2022-10-20T09:57:19.265Z,42.67
2022-10-20T09:59:47.543Z,42.32
2022-10-20T10:02:14.012Z,41.77
2022-10-20T10:04:43.269Z,41.32
2022-10-20T10:07:22.003Z,41.41
2022-10-20T10:09:58.887Z,43.30
2022-10-20T10:12:27.450Z,42.95
2022-10-20T10:15:00.040Z,42.18
2022-10-20T10:17:33.144Z,42.42
2022-10-20T10:20:07.257Z,40.68
2022-10-20T10:22:35.527Z,39.53
2022-10-20T10:25:02.625Z,39.06
2022-10-20T10:27:31.539Z,40.05
2022-10-20T10:30:16.921Z,40.22
2022-10-20T10:32:44.173Z,41.44
2022-10-20T10:35:33.688Z,44.13
2022-10-20T10:38:00.548Z,44.25
2022-10-20T10:41:02.484Z,45.21
2022-10-20T10:43:34.519Z,46.47
2022-10-20T10:46:27.922Z,46.93
2022-10-20T10:49:09.561Z,48.80
2022-10-20T10:51:54.257Z,47.42
2022-10-20T10:54:47.221Z,47.44
2022-10-20T10:58:00.998Z,47.52
2022-10-20T11:00:40.113Z,49.25
2022-10-20T11:03:18.766Z,49.58
2022-10-20T11:05:51.392Z,48.20
2022-10-20T11:08:26.870Z,47.26
2022-10-20T11:11:14.517Z,46.18
2022-10-20T11:13:43.785Z,45.53
2022-10-20T11:16:25.451Z,45.84
2022-10-20T11:19:09.568Z,51.58
2022-10-20T11:21:35.946Z,48.18
2022-10-20T11:24:41.537Z,49.76
2022-10-20T11:27:10.121Z,49.51
2022-10-20T11:29:51.554Z,48.05
2022-10-20T11:32:20.135Z,47.85
2022-10-20T11:34:54.719Z,48.56
2022-10-20T11:37:32.903Z,49.17
2022-10-20T11:40:08.577Z,50.82
2022-10-20T11:42:54.262Z,52.04
2022-10-20T11:45:52.350Z,52.68
2022-10-20T11:48:31.953Z,51.74
2022-10-20T11:51:29.853Z,50.39
2022-10-20T11:54:21.452Z,49.55
2022-10-20T11:57:06.187Z,50.42
2022-10-20T12:00:10.450Z,49.84
2022-10-20T12:02:54.991Z,48.96
2022-10-20T12:05:35.273Z,50.83
2022-10-20T12:08:28.279Z,52.16
2022-10-20T12:11:18.919Z,52.41
2022-10-20T12:14:08.157Z,52.84
2022-10-20T12:16:55.684Z,51.08
2022-10-20T12:19:29.777Z,50.85
2022-10-20T12:22:03.678Z,51.70
2022-10-20T12:24:33.284Z,53.21
2022-10-20T12:27:02.823Z,53.36
2022-10-20T12:29:32.295Z,52.16
2022-10-20T12:32:26.513Z,52.48
2022-10-20T12:34:53.875Z,52.02
2022-10-20T12:37:30.462Z,54.04
2022-10-20T12:40:18.127Z,52.64
2022-10-20T12:42:49.542Z,54.69
2022-10-20T12:45:18.906Z,53.15
2022-10-20T12:47:51.142Z,54.18
2022-10-20T12:50:37.060Z,52.35
2022-10-20T12:53:17.142Z,52.37
2022-10-20T12:55:53.263Z,52.49
2022-10-20T12:58:19.635Z,53.03
2022-10-20T13:00:46.070Z,52.22
2022-10-20T13:03:35.770Z,51.59
2022-10-20T13:06:22.153Z,53.31
2022-10-20T13:09:04.200Z,53.12
2022-10-20T13:11:40.633Z,56.32
2022-10-20T13:14:13.173Z,58.41
2022-10-20T13:16:44.848Z,59.44
2022-10-20T13:19:16.917Z,61.64
2022-10-20T13:21:47.398Z,61.03
2022-10-20T13:24:19.452Z,61.50
2022-10-20T13:26:57.595Z,60.64
2022-10-20T13:29:30.438Z,60.78
2022-10-20T13:32:12.418Z,60.87
2022-10-20T13:34:58.891Z,63.82
2022-10-20T13:37:46.147Z,64.37
2022-10-20T13:40:36.712Z,64.98
2022-10-20T13:43:26.290Z,66.89
2022-10-20T13:46:05.559Z,65.32
2022-10-20T13:49:02.348Z,65.25
2022-10-20T13:51:31.297Z,63.42
2022-10-20T13:54:03.473Z,64.93
2022-10-20T13:56:35.063Z,64.73
2022-10-20T13:59:06.532Z,64.55
2022-10-20T14:01:35.785Z,65.85
2022-10-20T14:04:02.435Z,66.03
2022-10-20T14:06:33.090Z,67.48
2022-10-20T14:09:18.233Z,69.38
2022-10-20T14:12:08.785Z,69.75
2022-10-20T14:14:35.415Z,67.78
2022-10-20T14:17:06.668Z,67.89
2022-10-20T14:19:34.137Z,68.01
2022-10-20T14:22:23.119Z,67.33
2022-10-20T14:24:54.889Z,67.13
2022-10-20T14:27:24.786Z,68.34
2022-10-20T14:29:52.036Z,70.28
2022-10-20T14:32:20.491Z,68.97
2022-10-20T14:35:13.670Z,69.51
2022-10-20T14:37:41.859Z,68.92
2022-10-20T14:40:37.266Z,68.35
2022-10-20T14:43:19.885Z,67.29
2022-10-20T14:45:59.315Z,68.95
2022-10-20T14:48:34.477Z,69.11
2022-10-20T14:51:01.443Z,67.82
2022-10-20T14:53:30.253Z,69.71
2022-10-20T14:56:00.635Z,68.30
2022-10-20T14:58:31.909Z,67.06
2022-10-20T15:01:25.958Z,67.50
2022-10-20T15:04:05.496Z,67.48
2022-10-20T15:06:32.404Z,66.39
2022-10-20T15:08:59.738Z,67.00
2022-10-20T15:11:28.059Z,66.25
2022-10-20T15:13:55.984Z,66.86
2022-10-20T15:16:42.721Z,66.35
2022-10-20T15:19:34.219Z,65.01
2022-10-20T15:22:08.253Z,67.08
2022-10-20T15:24:34.770Z,67.84
2022-10-20T15:27:02.875Z,67.47
2022-10-20T15:29:30.097Z,67.54
2022-10-20T15:31:56.598Z,66.84
2022-10-20T15:34:23.162Z,68.44
2022-10-20T15:36:51.057Z,67.99
2022-10-20T15:39:17.997Z,67.28
2022-10-20T15:41:45.171Z,68.90
2022-10-20T15:44:17.653Z,67.47
2022-10-20T15:46:45.503Z,68.79
2022-10-20T15:49:12.462Z,69.42
2022-10-20T15:51:41.352Z,67.95
2022-10-20T15:54:08.534Z,68.42
2022-10-20T15:56:35.413Z,67.06
2022-10-20T15:59:02.971Z,66.25
2022-10-20T16:01:30.121Z,65.87
2022-10-20T16:03:57.066Z,66.15
2022-10-20T16:06:24.131Z,66.56
2022-10-20T16:08:51.289Z,66.92
2022-10-20T16:11:19.927Z,65.92
2022-10-20T16:13:46.594Z,64.91
2022-10-20T16:16:16.180Z,65.01
2022-10-20T16:18:42.626Z,65.72
2022-10-20T16:21:09.839Z,65.46
2022-10-20T16:23:40.741Z,63.89
2022-10-20T16:26:12.515Z,63.53
2022-10-20T16:28:39.094Z,63.84
2022-10-20T16:31:14.512Z,63.69
2022-10-20T16:33:41.643Z,63.31
2022-10-20T16:36:10.316Z,64.20
2022-10-20T16:38:39.933Z,63.42
2022-10-20T16:41:13.445Z,63.32
2022-10-20T16:43:41.707Z,63.28
2022-10-20T16:46:09.656Z,62.92
2022-10-20T16:48:37.839Z,62.79
2022-10-20T16:51:06.466Z,63.36
2022-10-20T16:53:33.067Z,62.96
2022-10-20T16:55:59.581Z,63.53
2022-10-20T16:58:26.024Z,64.50
2022-10-20T17:01:01.734Z,64.31
2022-10-20T17:03:29.447Z,65.02
2022-10-20T17:05:58.176Z,65.96
2022-10-20T17:08:25.843Z,66.11
2022-10-20T17:10:56.834Z,65.40
2022-10-20T17:13:23.346Z,67.42
2022-10-20T17:15:50.243Z,67.62
2022-10-20T17:18:16.936Z,67.73
2022-10-20T17:20:43.570Z,67.72
2022-10-20T17:23:10.070Z,67.49
2022-10-20T17:25:37.470Z,65.84
2022-10-20T17:28:04.122Z,65.31
2022-10-20T17:30:30.617Z,65.64
2022-10-20T17:32:57.092Z,66.30
2022-10-20T17:35:23.567Z,65.91
2022-10-20T17:37:50.048Z,67.38
2022-10-20T17:42:43.976Z,66.40
2022-10-20T17:45:10.641Z,66.94
2022-10-20T17:47:37.087Z,68.29
2022-10-20T17:50:03.804Z,67.80
2022-10-20T17:52:30.300Z,68.96
2022-10-20T17:54:57.082Z,67.22
2022-10-20T17:57:23.608Z,66.67
2022-10-20T17:59:54.061Z,66.70
2022-10-20T18:02:24.251Z,66.16
2022-10-20T18:04:51.276Z,66.91
2022-10-20T18:07:17.805Z,66.23
2022-10-20T18:09:44.551Z,66.48
2022-10-20T18:12:11.006Z,66.65
2022-10-20T18:14:37.480Z,66.80
2022-10-20T18:17:04.115Z,66.18
2022-10-20T18:19:30.584Z,65.87
2022-10-20T18:21:57.043Z,65.76
2022-10-20T18:24:24.047Z,64.87
2022-10-20T18:26:50.569Z,64.55
2022-10-20T18:29:17.193Z,67.02
2022-10-20T18:31:44.857Z,65.99
2022-10-20T18:34:14.711Z,67.21
2022-10-20T18:36:44.925Z,67.22
2022-10-20T18:39:13.368Z,67.86
2022-10-20T18:41:40.932Z,67.12
2022-10-20T18:44:11.704Z,66.87
2022-10-20T18:46:39.388Z,68.40
2022-10-20T18:49:07.216Z,67.10
2022-10-20T18:51:34.647Z,67.76
2022-10-20T18:54:02.081Z,67.00
2022-10-20T18:56:30.055Z,66.48
2022-10-20T18:59:04.145Z,67.10
2022-10-20T19:01:36.259Z,67.26
2022-10-20T19:04:03.911Z,67.50
2022-10-20T19:06:39.747Z,68.26
2022-10-20T19:09:09.771Z,68.70
2022-10-20T19:11:38.017Z,69.40
2022-10-20T19:14:54.764Z,67.89
2022-10-20T19:17:21.928Z,68.62
2022-10-20T19:19:48.495Z,67.96
2022-10-20T19:22:14.965Z,66.25
2022-10-20T19:24:41.671Z,65.38
2022-10-20T19:27:25.515Z,65.30
2022-10-20T19:29:52.444Z,67.17
2022-10-20T19:32:19.248Z,65.97
2022-10-20T19:34:45.718Z,65.40
2022-10-20T19:37:12.206Z,67.30
2022-10-20T19:39:40.753Z,64.88
2022-10-20T19:42:08.404Z,65.04
2022-10-20T19:44:35.479Z,65.51
2022-10-20T19:47:02.122Z,67.04
2022-10-20T19:49:28.675Z,65.62
2022-10-20T19:51:55.303Z,66.18
2022-10-20T19:54:21.883Z,65.53
2022-10-20T19:56:48.423Z,65.05
2022-10-20T19:59:14.945Z,65.08
2022-10-20T20:01:41.589Z,65.14
2022-10-20T20:04:08.069Z,63.79
2022-10-20T20:06:35.091Z,63.33
2022-10-20T20:09:05.258Z,63.69
2022-10-20T20:11:32.320Z,66.05
2022-10-20T20:14:01.177Z,64.35
2022-10-20T20:16:28.595Z,64.99
2022-10-20T20:18:55.565Z,64.63
2022-10-20T20:21:23.295Z,65.64
2022-10-20T20:24:03.008Z,65.53
2022-10-20T20:26:31.553Z,65.71
2022-10-20T20:28:58.438Z,66.57
2022-10-20T20:31:25.991Z,65.75
2022-10-20T20:33:53.087Z,65.22
2022-10-20T20:36:19.936Z,65.32
2022-10-20T20:38:46.699Z,64.53
2022-10-20T20:41:17.396Z,63.55
2022-10-20T20:43:47.462Z,63.84
2022-10-20T20:46:16.639Z,63.48
2022-10-20T20:48:43.487Z,64.46
2022-10-20T20:51:10.650Z,63.65
2022-10-20T20:53:37.723Z,64.76
2022-10-20T20:56:06.322Z,65.38
2022-10-20T20:58:33.344Z,64.09
2022-10-20T21:01:11.103Z,64.00
2022-10-20T21:03:38.005Z,64.08
2022-10-20T21:06:13.055Z,64.59
2022-10-20T21:08:40.715Z,64.63
2022-10-20T21:11:12.976Z,65.92
2022-10-20T21:13:40.946Z,66.37
2022-10-20T21:16:23.661Z,68.05
2022-10-20T21:18:52.477Z,65.74
2022-10-20T21:21:21.906Z,64.78
2022-10-20T21:23:48.825Z,64.35
2022-10-20T21:26:17.391Z,64.24
2022-10-20T21:28:44.539Z,64.10
2022-10-20T21:31:15.717Z,64.67
2022-10-20T21:33:42.672Z,64.58
2022-10-20T21:36:12.031Z,64.04
2022-10-20T21:38:40.137Z,64.92
2022-10-20T21:41:21.347Z,64.51
2022-10-20T21:43:50.513Z,64.99
2022-10-20T21:46:25.888Z,65.85
2022-10-20T21:48:59.890Z,64.95
2022-10-20T21:51:32.189Z,65.15
2022-10-20T21:54:00.988Z,64.17
2022-10-20T21:56:28.300Z,64.98
2022-10-20T21:58:55.121Z,64.59
2022-10-20T22:01:24.386Z,68.08
2022-10-20T22:03:52.817Z,68.84
2022-10-20T22:06:24.252Z,67.56
2022-10-20T22:08:53.245Z,69.59
2022-10-20T22:11:23.522Z,68.74
2022-10-20T22:13:50.343Z,67.85
2022-10-20T22:16:19.431Z,69.05
2022-10-20T22:18:46.455Z,68.72
2022-10-20T22:21:17.143Z,67.62
2022-10-20T22:23:44.747Z,66.55
2022-10-20T22:26:12.041Z,66.98
2022-10-20T22:28:38.684Z,66.05
2022-10-20T22:31:06.459Z,66.18
2022-10-20T22:33:33.557Z,65.95
2022-10-20T22:36:00.150Z,65.46
2022-10-20T22:38:26.608Z,66.12
2022-10-20T22:40:58.025Z,66.39
2022-10-20T22:43:24.553Z,66.91
2022-10-20T22:45:50.985Z,66.25
2022-10-20T22:48:17.872Z,64.70
2022-10-20T22:50:44.311Z,65.85
2022-10-20T22:53:11.186Z,65.46
2022-10-20T22:55:37.729Z,65.66
2022-10-20T22:58:04.668Z,63.34
2022-10-20T23:00:31.439Z,64.28
2022-10-20T23:02:58.203Z,64.86
2022-10-20T23:05:24.790Z,64.79
2022-10-20T23:07:51.402Z,65.37
2022-10-20T23:10:17.984Z,63.07
2022-10-20T23:12:44.540Z,65.49
2022-10-20T23:15:11.208Z,65.08
2022-10-20T23:17:37.910Z,64.95
2022-10-20T23:20:05.585Z,64.01
2022-10-20T23:22:32.093Z,62.48
2022-10-20T23:24:58.558Z,64.96
2022-10-20T23:27:25.197Z,63.66
2022-10-20T23:29:51.686Z,64.51
2022-10-20T23:32:18.655Z,64.98
2022-10-20T23:34:45.109Z,64.57
2022-10-20T23:37:11.621Z,65.62
2022-10-20T23:39:38.053Z,65.32
2022-10-20T23:42:07.199Z,65.50
2022-10-20T23:44:34.061Z,66.08
2022-10-20T23:47:00.665Z,65.80
2022-10-20T23:49:27.227Z,64.62
2022-10-20T23:51:53.697Z,65.10
2022-10-20T23:54:20.205Z,66.09
2022-10-20T23:56:46.910Z,66.42
2022-10-20T23:59:13.564Z,67.39
